createdAt,value
2022-08-18T00:04:10.886Z,74.60
2022-08-18T00:09:06.062Z,74.90
2022-08-18T00:14:04.960Z,75.00
2022-08-18T00:19:08.759Z,75.00
2022-08-18T00:24:04.925Z,75.00
2022-08-18T00:29:04.038Z,75.00
2022-08-18T00:34:02.948Z,75.20
2022-08-18T00:39:01.964Z,75.40
2022-08-18T00:44:00.972Z,75.60
2022-08-18T00:49:00.003Z,75.70
2022-08-18T00:53:58.965Z,75.50
2022-08-18T00:58:58.014Z,75.40
2022-08-18T01:03:58.117Z,75.60
2022-08-18T01:08:57.061Z,75.60
2022-08-18T01:13:55.984Z,75.80
2022-08-18T01:19:15.305Z,75.70
2022-08-18T01:24:16.461Z,75.80
2022-08-18T01:29:19.130Z,76.20
2022-08-18T01:34:16.061Z,76.70
2022-08-18T01:39:14.972Z,76.90
2022-08-18T01:44:16.037Z,77.00
2022-08-18T01:49:15.048Z,77.10
2022-08-18T01:54:14.115Z,77.10
2022-08-18T01:59:14.457Z,77.10
2022-08-18T02:04:33.827Z,77.30
2022-08-18T02:09:23.697Z,77.20
2022-08-18T02:14:19.025Z,77.50
2022-08-18T02:19:20.077Z,77.60
2022-08-18T02:24:19.021Z,77.80
2022-08-18T02:29:18.132Z,77.80
2022-08-18T02:34:17.313Z,77.80
2022-08-18T02:39:16.125Z,78.10
2022-08-18T02:44:15.129Z,78.30
2022-08-18T02:49:14.048Z,78.50
2022-08-18T02:54:13.044Z,78.50
2022-08-18T02:59:12.085Z,78.80
2022-08-18T03:04:11.281Z,79.40
2022-08-18T03:09:10.026Z,79.60
2022-08-18T03:14:11.349Z,79.70
2022-08-18T03:19:10.026Z,79.80
2022-08-18T03:24:09.334Z,79.80
2022-08-18T03:29:10.113Z,79.90
2022-08-18T03:34:09.057Z,80.20
2022-08-18T03:39:08.152Z,80.60
2022-08-18T03:44:07.147Z,80.70
2022-08-18T03:49:06.240Z,80.90
2022-08-18T03:54:05.212Z,81.30
2022-08-18T03:59:04.087Z,81.80
2022-08-18T04:04:03.075Z,82.00
2022-08-18T04:09:02.116Z,82.20
2022-08-18T04:14:02.517Z,82.70
2022-08-18T04:19:03.084Z,83.00
2022-08-18T04:24:03.677Z,83.00
2022-08-18T04:29:02.152Z,83.10
2022-08-18T04:34:01.173Z,83.50
2022-08-18T04:39:00.163Z,83.50
2022-08-18T04:43:59.176Z,83.70
2022-08-18T04:48:58.568Z,84.00
2022-08-18T04:53:57.080Z,85.00
2022-08-18T04:58:56.086Z,84.90
2022-08-18T05:03:55.103Z,85.70
2022-08-18T05:08:54.291Z,85.90
2022-08-18T05:13:53.748Z,86.10
2022-08-18T05:18:52.916Z,86.10
2022-08-18T05:23:52.105Z,86.20
2022-08-18T05:29:00.151Z,86.10
2022-08-18T05:33:52.150Z,86.00
2022-08-18T05:38:51.174Z,86.00
2022-08-18T05:43:52.135Z,86.30
2022-08-18T05:48:51.235Z,86.40
2022-08-18T05:54:08.444Z,86.90
2022-08-18T05:59:07.144Z,86.80
2022-08-18T06:04:06.136Z,87.00
2022-08-18T06:09:05.359Z,86.90
2022-08-18T06:14:04.125Z,87.00
2022-08-18T06:19:03.259Z,87.20
2022-08-18T06:24:02.241Z,87.20
2022-08-18T06:29:02.247Z,87.50
2022-08-18T06:34:01.175Z,87.60
2022-08-18T06:39:00.192Z,87.70
2022-08-18T06:43:59.198Z,87.70
2022-08-18T06:48:58.228Z,87.80
2022-08-18T06:53:57.215Z,87.80
2022-08-18T06:58:56.235Z,87.90
2022-08-18T07:03:56.163Z,88.10
2022-08-18T07:08:55.172Z,88.30
2022-08-18T07:14:09.555Z,88.20
2022-08-18T07:18:55.236Z,88.20
2022-08-18T07:24:21.141Z,88.10
2022-08-18T07:29:01.404Z,88.20
2022-08-18T07:34:00.218Z,88.10
2022-08-18T07:38:59.296Z,88.30
2022-08-18T07:43:58.908Z,88.40
2022-08-18T07:48:58.793Z,88.30
2022-08-18T07:53:58.263Z,88.40
2022-08-18T07:58:58.171Z,88.20
2022-08-18T08:03:57.308Z,88.30
2022-08-18T08:08:56.608Z,87.90
2022-08-18T08:13:56.657Z,87.70
2022-08-18T08:18:56.286Z,87.30
2022-08-18T08:23:55.324Z,86.50
2022-08-18T08:28:56.090Z,86.20
2022-08-18T08:33:55.272Z,86.10
2022-08-18T08:38:54.279Z,85.70
2022-08-18T08:43:53.479Z,85.00
2022-08-18T08:48:52.391Z,83.70
2022-08-18T08:53:54.285Z,83.60
2022-08-18T08:58:53.684Z,83.30
2022-08-18T09:03:52.291Z,83.30
2022-08-18T09:08:51.308Z,82.90
2022-08-18T09:13:50.341Z,82.70
2022-08-18T09:18:49.379Z,82.30
2022-08-18T09:23:48.351Z,81.10
2022-08-18T09:28:47.983Z,80.50
2022-08-18T09:33:47.293Z,79.80
2022-08-18T09:39:04.664Z,76.90
2022-08-18T09:44:21.718Z,74.70
2022-08-18T09:49:14.329Z,72.90
2022-08-18T09:59:18.389Z,70.70
2022-08-18T10:14:20.334Z,67.80
2022-08-18T10:19:22.095Z,66.40
2022-08-18T10:24:36.908Z,65.40
2022-08-18T10:29:21.505Z,65.60
2022-08-18T10:34:21.432Z,66.20
2022-08-18T10:39:22.387Z,65.10
2022-08-18T10:49:25.181Z,64.60
2022-08-18T10:54:24.435Z,62.20
2022-08-18T10:59:28.746Z,62.30
2022-08-18T11:04:33.329Z,62.10
2022-08-18T11:09:25.822Z,61.50
2022-08-18T11:14:26.581Z,61.80
2022-08-18T11:19:25.444Z,62.10
2022-08-18T11:24:24.961Z,62.50
2022-08-18T11:29:24.498Z,61.60
2022-08-18T11:34:23.496Z,58.20
2022-08-18T11:39:35.977Z,58.30
2022-08-18T11:44:24.745Z,57.00
2022-08-18T11:49:26.511Z,57.80
2022-08-18T11:54:25.400Z,59.20
2022-08-18T11:59:24.479Z,57.90
2022-08-18T12:04:25.782Z,58.50
2022-08-18T12:14:31.667Z,57.70
2022-08-18T12:19:27.641Z,56.10
2022-08-18T12:29:36.585Z,57.40
2022-08-18T12:34:29.441Z,57.70
2022-08-18T12:39:28.622Z,57.30
2022-08-18T12:44:27.533Z,57.00
2022-08-18T12:49:26.955Z,58.10
2022-08-18T12:54:26.897Z,59.00
2022-08-18T12:59:25.706Z,58.90
2022-08-18T13:04:26.811Z,59.10
2022-08-18T13:09:35.325Z,59.10
2022-08-18T13:14:26.563Z,59.20
2022-08-18T13:19:26.487Z,58.30
2022-08-18T13:24:27.550Z,56.90
2022-08-18T13:29:26.526Z,56.30
2022-08-18T13:34:27.053Z,55.90
2022-08-18T13:39:25.781Z,56.10
2022-08-18T13:44:26.548Z,54.40
2022-08-18T13:49:30.303Z,55.00
2022-08-18T13:54:31.451Z,56.70
2022-08-18T13:59:30.625Z,57.60
2022-08-18T14:04:29.498Z,57.60
2022-08-18T14:09:37.574Z,57.80
2022-08-18T14:14:29.929Z,56.80
2022-08-18T14:19:47.809Z,56.00
2022-08-18T14:25:05.899Z,55.40
2022-08-18T14:30:04.563Z,54.90
2022-08-18T14:36:03.827Z,54.80
2022-08-18T14:40:05.052Z,54.00
2022-08-18T14:45:26.738Z,53.40
2022-08-18T14:50:16.533Z,53.50
2022-08-18T14:55:17.824Z,53.20
2022-08-18T15:00:16.492Z,54.10
2022-08-18T15:05:19.805Z,53.50
2022-08-18T15:10:19.887Z,52.50
2022-08-18T15:15:18.391Z,52.30
2022-08-18T15:20:17.601Z,51.70
2022-08-18T15:25:54.627Z,50.90
2022-08-18T15:35:55.991Z,51.90
2022-08-18T15:40:57.646Z,51.80
2022-08-18T15:45:58.490Z,51.80
2022-08-18T15:50:57.539Z,51.60
2022-08-18T15:55:58.572Z,50.10
2022-08-18T16:00:59.826Z,50.00
2022-08-18T16:05:59.603Z,50.40
2022-08-18T16:10:58.723Z,50.40
2022-08-18T16:15:57.696Z,51.30
2022-08-18T16:20:56.918Z,51.20
2022-08-18T16:25:55.724Z,51.60
2022-08-18T16:30:54.756Z,51.30
2022-08-18T16:35:53.833Z,51.60
2022-08-18T16:40:52.778Z,52.10
2022-08-18T16:45:51.962Z,51.80
2022-08-18T16:50:51.075Z,52.10
2022-08-18T16:55:49.681Z,52.00
2022-08-18T17:01:06.788Z,52.10
2022-08-18T17:06:05.932Z,52.50
2022-08-18T17:11:08.171Z,53.00
2022-08-18T17:16:07.020Z,53.00
2022-08-18T17:21:08.836Z,53.50
2022-08-18T17:26:07.702Z,53.80
2022-08-18T17:31:06.855Z,54.10
2022-08-18T17:36:06.343Z,54.50
2022-08-18T17:41:05.843Z,54.70
2022-08-18T17:46:04.889Z,54.90
2022-08-18T17:51:21.947Z,55.10
2022-08-18T17:56:20.975Z,55.30
2022-08-18T18:01:20.213Z,55.70
2022-08-18T18:06:18.739Z,56.00
2022-08-18T18:11:18.263Z,56.20
2022-08-18T18:16:16.767Z,56.50
2022-08-18T18:21:15.736Z,56.80
2022-08-18T18:26:14.792Z,57.30
2022-08-18T18:31:13.812Z,58.00
2022-08-18T18:36:12.819Z,58.50
2022-08-18T18:41:11.835Z,59.00
2022-08-18T18:46:11.610Z,59.50
2022-08-18T18:51:12.286Z,60.00
2022-08-18T18:56:12.608Z,60.40
2022-08-18T19:01:12.010Z,60.80
2022-08-18T19:06:12.999Z,61.20
2022-08-18T19:11:11.845Z,61.50
2022-08-18T19:16:21.449Z,62.00
2022-08-18T19:22:03.939Z,62.10
2022-08-18T19:26:13.991Z,62.60
2022-08-18T19:31:13.035Z,62.90
2022-08-18T19:36:19.372Z,63.10
2022-08-18T19:41:12.788Z,63.50
2022-08-18T19:46:14.011Z,64.10
2022-08-18T19:51:15.736Z,64.50
2022-08-18T19:56:15.721Z,64.60
2022-08-18T20:01:20.875Z,64.80
2022-08-18T20:06:33.890Z,65.20
2022-08-18T20:11:20.496Z,65.60
2022-08-18T20:16:20.782Z,65.40
2022-08-18T20:21:20.076Z,65.70
2022-08-18T20:26:18.736Z,65.80
2022-08-18T20:31:17.918Z,66.00
2022-08-18T20:36:17.230Z,66.20
2022-08-18T20:41:15.835Z,66.40
2022-08-18T20:46:14.860Z,67.00
2022-08-18T20:51:14.065Z,67.50
2022-08-18T20:56:32.416Z,67.40
2022-08-18T21:01:13.982Z,67.40
2022-08-18T21:06:12.773Z,67.50
2022-08-18T21:11:11.857Z,67.60
2022-08-18T21:16:11.178Z,67.70
2022-08-18T21:21:09.901Z,67.90
2022-08-18T21:26:08.789Z,68.10
2022-08-18T21:31:29.218Z,68.40
2022-08-18T21:36:09.482Z,68.70
2022-08-18T21:41:09.280Z,68.70
2022-08-18T21:46:09.708Z,69.10
2022-08-18T21:51:10.910Z,69.70
2022-08-18T21:56:09.926Z,70.00
2022-08-18T22:01:08.879Z,70.20
2022-08-18T22:06:07.940Z,70.10
2022-08-18T22:11:38.373Z,70.40
2022-08-18T22:16:26.741Z,70.60
2022-08-18T22:21:26.068Z,70.90
2022-08-18T22:26:25.753Z,71.00
2022-08-18T22:31:25.212Z,71.10
2022-08-18T22:36:23.936Z,71.30
2022-08-18T22:41:22.946Z,71.40
2022-08-18T22:46:24.265Z,71.50
2022-08-18T22:51:24.086Z,71.70
2022-08-18T22:56:24.598Z,72.00
2022-08-18T23:01:23.998Z,72.20
2022-08-18T23:06:24.905Z,72.30
2022-08-18T23:11:23.858Z,72.60
2022-08-18T23:16:31.240Z,72.90
2022-08-18T23:21:34.593Z,73.00
2022-08-18T23:26:26.229Z,73.20
2022-08-18T23:31:27.277Z,73.30
2022-08-18T23:36:26.114Z,73.40
2022-08-18T23:41:25.000Z,73.60
2022-08-18T23:46:24.125Z,73.70
2022-08-18T23:51:24.003Z,74.10
2022-08-18T23:56:22.967Z,74.20
